createdAt,value
2018-03-21T00:00:23.273Z,7.77
2018-03-21T00:02:52.503Z,7.90
2018-03-21T00:05:21.892Z,8.23
2018-03-21T00:07:51.150Z,7.97
2018-03-21T00:10:20.533Z,7.70
2018-03-21T00:12:49.850Z,8.30
2018-03-21T00:15:19.161Z,7.93
2018-03-21T00:17:48.475Z,8.57
2018-03-21T00:20:17.699Z,8.50
2018-03-21T00:22:47.000Z,7.77
2018-03-21T00:25:16.276Z,8.37
2018-03-21T00:27:45.531Z,8.57
2018-03-21T00:30:14.838Z,7.43
2018-03-21T00:32:44.131Z,9.03
2018-03-21T00:35:13.389Z,9.03
2018-03-21T00:37:42.776Z,8.07
2018-03-21T00:40:11.979Z,8.00
2018-03-21T00:42:41.227Z,8.17
2018-03-21T00:45:10.611Z,8.00
2018-03-21T00:47:39.824Z,8.00
2018-03-21T00:50:09.076Z,7.83
2018-03-21T00:52:38.313Z,8.20
2018-03-21T00:55:07.501Z,7.47
2018-03-21T00:57:37.486Z,8.27
2018-03-21T01:00:06.696Z,8.20
2018-03-21T01:02:36.014Z,8.10
2018-03-21T01:05:05.329Z,8.53
2018-03-21T01:07:34.610Z,7.53
2018-03-21T01:10:03.796Z,8.13
2018-03-21T01:12:33.806Z,8.20
2018-03-21T01:15:03.090Z,7.70
2018-03-21T01:17:32.403Z,8.00
2018-03-21T01:20:01.649Z,7.87
2018-03-21T01:22:31.030Z,7.73
2018-03-21T01:25:00.253Z,7.47
2018-03-21T01:27:30.276Z,7.80
2018-03-21T01:30:00.328Z,7.63
2018-03-21T01:32:29.554Z,7.57
2018-03-21T01:34:59.578Z,7.40
2018-03-21T01:37:28.958Z,7.43
2018-03-21T01:39:58.372Z,7.30
2018-03-21T01:42:27.618Z,7.80
2018-03-21T01:44:57.578Z,7.83
2018-03-21T01:47:26.836Z,7.90
2018-03-21T01:49:57.581Z,8.43
2018-03-21T01:52:26.852Z,7.80
2018-03-21T01:54:56.102Z,7.30
2018-03-21T01:57:26.450Z,8.03
2018-03-21T01:59:55.712Z,7.87
2018-03-21T02:02:25.038Z,7.87
2018-03-21T02:04:54.286Z,8.27
2018-03-21T02:07:23.508Z,7.80
2018-03-21T02:09:53.544Z,8.03
2018-03-21T02:12:23.590Z,8.17
2018-03-21T02:14:52.864Z,8.33
2018-03-21T02:17:22.273Z,8.70
2018-03-21T02:19:51.498Z,8.80
2018-03-21T02:22:20.769Z,9.13
2018-03-21T02:24:50.107Z,8.50
2018-03-21T02:27:19.420Z,9.03
2018-03-21T02:29:48.671Z,9.77
2018-03-21T02:32:18.463Z,9.13
2018-03-21T02:34:47.880Z,8.70
2018-03-21T02:37:17.125Z,8.23
2018-03-21T02:39:46.439Z,9.47
2018-03-21T02:42:15.811Z,9.07
2018-03-21T02:44:45.043Z,9.37
2018-03-21T02:47:14.227Z,9.80
2018-03-21T02:49:43.550Z,9.13
2018-03-21T02:52:12.826Z,9.53
2018-03-21T02:54:42.768Z,8.73
2018-03-21T02:57:12.079Z,9.10
2018-03-21T02:59:41.334Z,8.80
2018-03-21T03:02:11.452Z,9.87
2018-03-21T03:04:40.673Z,9.13
2018-03-21T03:07:09.330Z,8.80
2018-03-21T03:09:38.670Z,9.00
2018-03-21T03:12:07.909Z,8.87
2018-03-21T03:14:37.135Z,8.53
2018-03-21T03:17:07.325Z,9.00
2018-03-21T03:19:36.532Z,7.87
2018-03-21T03:22:05.787Z,8.20
2018-03-21T03:24:35.791Z,8.40
2018-03-21T03:27:05.047Z,8.37
2018-03-21T03:29:34.582Z,7.60
2018-03-21T03:32:03.783Z,7.90
2018-03-21T03:34:33.081Z,7.57
2018-03-21T03:37:02.377Z,7.53
2018-03-21T03:39:32.278Z,7.80
2018-03-21T03:42:01.936Z,7.10
2018-03-21T03:44:32.002Z,8.13
2018-03-21T03:47:01.206Z,7.23
2018-03-21T03:49:30.450Z,7.63
2018-03-21T03:51:59.764Z,7.37
2018-03-21T03:54:29.177Z,7.27
2018-03-21T03:56:58.454Z,8.30
2018-03-21T03:59:27.677Z,6.60
2018-03-21T04:01:57.656Z,8.30
2018-03-21T04:04:31.309Z,7.60
2018-03-21T04:07:00.550Z,7.50
2018-03-21T04:09:29.791Z,7.57
2018-03-21T04:11:59.051Z,7.03
2018-03-21T04:14:28.342Z,6.97
2018-03-21T04:16:58.331Z,6.67
2018-03-21T04:19:27.579Z,6.87
2018-03-21T04:21:57.059Z,6.90
2018-03-21T04:24:26.470Z,7.10
2018-03-21T04:26:55.740Z,7.10
2018-03-21T04:29:25.780Z,7.37
2018-03-21T04:31:55.026Z,7.57
2018-03-21T04:34:24.263Z,7.00
2018-03-21T04:36:54.353Z,7.40
2018-03-21T04:39:23.606Z,6.63
2018-03-21T04:41:52.836Z,6.57
2018-03-21T04:44:22.841Z,7.07
2018-03-21T04:46:52.927Z,6.97
2018-03-21T04:49:22.288Z,7.07
2018-03-21T04:51:52.409Z,6.60
2018-03-21T04:54:21.729Z,7.33
2018-03-21T04:56:52.109Z,7.40
2018-03-21T04:59:21.364Z,7.23
2018-03-21T05:01:53.969Z,7.77
2018-03-21T05:04:23.160Z,8.00
2018-03-21T05:06:52.433Z,7.87
2018-03-21T05:09:21.696Z,7.80
2018-03-21T05:11:50.943Z,7.83
2018-03-21T05:14:21.037Z,7.60
2018-03-21T05:16:50.276Z,7.17
2018-03-21T05:19:22.252Z,7.57
2018-03-21T05:22:04.952Z,7.77
2018-03-21T05:24:34.264Z,7.57
2018-03-21T05:27:03.520Z,7.97
2018-03-21T05:29:33.483Z,9.63
2018-03-21T05:32:02.929Z,9.33
2018-03-21T05:34:32.235Z,9.83
2018-03-21T05:37:01.462Z,9.93
2018-03-21T05:39:30.669Z,9.57
2018-03-21T05:42:00.765Z,10.00
2018-03-21T05:44:30.098Z,9.93
2018-03-21T05:46:59.516Z,9.93
2018-03-21T05:49:28.746Z,9.83
2018-03-21T05:51:58.004Z,10.07
2018-03-21T05:54:27.354Z,9.83
2018-03-21T05:56:56.547Z,10.23
2018-03-21T05:59:25.926Z,9.57
2018-03-21T06:01:55.987Z,10.53
2018-03-21T06:04:25.322Z,10.17
2018-03-21T06:07:01.454Z,10.03
2018-03-21T06:09:30.792Z,9.00
2018-03-21T06:12:13.942Z,9.83
2018-03-21T06:14:50.318Z,9.30
2018-03-21T06:17:19.588Z,9.80
2018-03-21T06:19:48.894Z,9.60
2018-03-21T06:22:18.269Z,9.60
2018-03-21T06:24:47.578Z,9.70
2018-03-21T06:27:16.827Z,9.00
2018-03-21T06:29:46.151Z,8.90
2018-03-21T06:32:15.416Z,8.73
2018-03-21T06:34:44.656Z,9.27
2018-03-21T06:37:14.047Z,9.00
2018-03-21T06:39:43.459Z,9.13
2018-03-21T06:42:18.102Z,10.23
2018-03-21T06:44:48.144Z,9.27
2018-03-21T06:47:17.384Z,9.63
2018-03-21T06:49:47.485Z,9.43
2018-03-21T06:52:17.597Z,9.63
2018-03-21T06:54:46.924Z,9.60
2018-03-21T06:57:16.162Z,9.23
2018-03-21T06:59:45.414Z,9.50
2018-03-21T07:02:14.622Z,9.43
2018-03-21T07:04:43.975Z,9.00
2018-03-21T07:07:13.262Z,9.17
2018-03-21T07:09:42.562Z,9.43
2018-03-21T07:12:12.534Z,10.23
2018-03-21T07:14:53.535Z,8.90
2018-03-21T07:17:22.802Z,9.40
2018-03-21T07:19:52.067Z,8.83
2018-03-21T07:22:22.282Z,9.27
2018-03-21T07:24:52.517Z,8.83
2018-03-21T07:27:21.747Z,9.17
2018-03-21T07:29:51.789Z,9.07
2018-03-21T07:32:21.081Z,8.77
2018-03-21T07:34:50.475Z,8.57
2018-03-21T07:37:20.553Z,8.53
2018-03-21T07:39:49.880Z,8.27
2018-03-21T07:42:19.129Z,8.00
2018-03-21T07:44:49.687Z,8.60
2018-03-21T07:47:18.981Z,8.27
2018-03-21T07:49:48.378Z,8.03
2018-03-21T07:52:17.660Z,8.53
2018-03-21T07:54:47.134Z,8.73
2018-03-21T07:57:16.383Z,7.77
2018-03-21T07:59:45.613Z,8.00
2018-03-21T08:02:15.588Z,7.90
2018-03-21T08:04:44.796Z,8.50
2018-03-21T08:07:14.039Z,8.60
2018-03-21T08:09:43.508Z,8.40
2018-03-21T08:12:12.741Z,7.97
2018-03-21T08:14:42.009Z,7.53
2018-03-21T08:17:11.969Z,8.33
2018-03-21T08:19:41.297Z,7.73
2018-03-21T08:22:10.671Z,8.33
2018-03-21T08:24:39.878Z,8.60
2018-03-21T08:27:09.181Z,7.23
2018-03-21T08:29:38.545Z,7.43
2018-03-21T08:32:07.847Z,6.53
2018-03-21T08:34:37.092Z,5.93
2018-03-21T08:37:06.383Z,6.20
2018-03-21T08:39:35.600Z,6.00
2018-03-21T08:42:04.913Z,5.40
2018-03-21T08:44:34.142Z,6.23
2018-03-21T08:47:03.432Z,5.73
2018-03-21T08:49:32.642Z,6.27
2018-03-21T08:52:02.447Z,6.00
2018-03-21T08:54:31.660Z,6.13
2018-03-21T08:57:00.884Z,6.37
2018-03-21T08:59:30.115Z,6.17
2018-03-21T09:01:59.333Z,6.60
2018-03-21T09:04:28.983Z,5.70
2018-03-21T09:06:58.203Z,6.10
2018-03-21T09:09:27.478Z,5.83
2018-03-21T09:11:56.734Z,6.13
2018-03-21T09:14:26.014Z,5.63
2018-03-21T09:16:55.231Z,5.83
2018-03-21T09:19:25.311Z,5.63
2018-03-21T09:21:54.563Z,6.13
2018-03-21T09:24:23.916Z,5.80
2018-03-21T09:26:53.166Z,5.53
2018-03-21T09:29:22.427Z,5.13
2018-03-21T09:31:51.767Z,5.13
2018-03-21T09:34:21.030Z,4.30
2018-03-21T09:36:50.253Z,5.33
2018-03-21T09:39:19.504Z,5.03
2018-03-21T09:41:48.766Z,4.80
2018-03-21T09:44:18.747Z,4.30
2018-03-21T09:46:47.990Z,4.80
2018-03-21T09:49:18.019Z,4.77
2018-03-21T09:51:47.335Z,4.13
2018-03-21T09:54:16.651Z,4.73
2018-03-21T09:56:46.713Z,4.53
2018-03-21T09:59:15.986Z,4.37
2018-03-21T10:01:45.196Z,4.60
2018-03-21T10:04:14.426Z,4.00
2018-03-21T10:06:44.462Z,4.63
2018-03-21T10:09:13.669Z,4.20
2018-03-21T10:11:42.871Z,4.10
2018-03-21T10:14:12.113Z,4.00
2018-03-21T10:16:41.380Z,4.13
2018-03-21T10:19:11.599Z,4.20
2018-03-21T10:21:40.930Z,3.97
2018-03-21T10:24:11.012Z,4.03
2018-03-21T10:26:40.266Z,4.10
2018-03-21T10:29:09.540Z,4.37
2018-03-21T10:31:39.636Z,4.20
2018-03-21T10:34:08.837Z,4.00
2018-03-21T10:36:38.092Z,3.80
2018-03-21T10:39:07.342Z,3.37
2018-03-21T10:41:36.569Z,4.47
2018-03-21T10:44:05.843Z,4.07
2018-03-21T10:46:35.001Z,3.60
2018-03-21T10:49:04.244Z,4.23
2018-03-21T10:51:33.556Z,3.70
2018-03-21T10:54:03.594Z,3.60
2018-03-21T10:56:32.812Z,3.07
2018-03-21T10:59:02.013Z,3.37
2018-03-21T11:01:37.254Z,3.80
2018-03-21T11:04:07.290Z,3.83
2018-03-21T11:06:36.487Z,3.37
2018-03-21T11:09:05.659Z,3.60
2018-03-21T11:11:34.936Z,3.40
2018-03-21T11:14:04.907Z,3.93
2018-03-21T11:16:34.133Z,3.20
2018-03-21T11:19:03.327Z,3.07
2018-03-21T11:21:32.535Z,2.80
2018-03-21T11:24:01.807Z,2.90
2018-03-21T11:26:31.028Z,3.20
2018-03-21T11:29:00.271Z,3.57
2018-03-21T11:31:29.491Z,3.60
2018-03-21T11:33:58.759Z,3.20
2018-03-21T11:36:28.028Z,3.23
2018-03-21T11:38:57.201Z,2.90
2018-03-21T11:41:26.392Z,3.13
2018-03-21T11:43:55.668Z,3.20
2018-03-21T11:46:25.052Z,3.00
2018-03-21T11:48:54.284Z,3.20
2018-03-21T11:51:24.311Z,2.80
2018-03-21T11:53:54.365Z,2.87
2018-03-21T11:56:24.470Z,3.20
2018-03-21T11:58:53.805Z,3.07
2018-03-21T12:01:23.915Z,3.20
2018-03-21T12:03:53.230Z,2.97
2018-03-21T12:06:22.451Z,2.70
2018-03-21T12:08:52.530Z,2.90
2018-03-21T12:11:21.797Z,2.77
2018-03-21T12:13:51.031Z,2.90
2018-03-21T12:16:20.295Z,2.83
2018-03-21T12:18:49.515Z,2.70
2018-03-21T12:21:18.818Z,2.73
2018-03-21T12:23:48.884Z,2.80
2018-03-21T12:26:18.105Z,2.33
2018-03-21T12:28:48.102Z,3.10
2018-03-21T12:31:18.131Z,2.53
2018-03-21T12:33:47.369Z,2.77
2018-03-21T12:36:17.394Z,2.67
2018-03-21T12:38:47.444Z,2.30
2018-03-21T12:41:17.436Z,2.60
2018-03-21T12:43:46.655Z,2.30
2018-03-21T12:46:15.889Z,2.50
2018-03-21T12:48:45.874Z,2.40
2018-03-21T12:51:15.167Z,2.50
2018-03-21T12:53:44.356Z,2.37
2018-03-21T12:56:13.733Z,2.33
2018-03-21T12:58:43.652Z,2.30
2018-03-21T13:01:12.849Z,2.30
2018-03-21T13:03:42.075Z,2.53
2018-03-21T13:06:11.311Z,2.40
2018-03-21T13:08:40.554Z,2.60
2018-03-21T13:11:09.794Z,2.50
2018-03-21T13:13:39.031Z,2.57
2018-03-21T13:16:08.242Z,2.20
2018-03-21T13:18:37.483Z,2.20
2018-03-21T13:21:06.708Z,2.40
2018-03-21T13:23:35.941Z,2.30
2018-03-21T13:26:05.285Z,2.07
2018-03-21T13:28:34.516Z,2.30
2018-03-21T13:31:04.539Z,2.50
2018-03-21T13:33:33.712Z,2.40
2018-03-21T13:36:02.938Z,1.90
2018-03-21T13:38:32.158Z,2.30
2018-03-21T13:41:01.419Z,2.13
2018-03-21T13:43:30.825Z,2.20
2018-03-21T13:46:00.151Z,2.17
2018-03-21T13:48:29.402Z,2.10
2018-03-21T13:50:58.606Z,2.07
2018-03-21T13:53:27.839Z,2.10
2018-03-21T13:55:57.077Z,1.87
2018-03-21T13:58:27.087Z,1.70
2018-03-21T14:00:56.327Z,1.80
2018-03-21T14:03:26.302Z,1.80
2018-03-21T14:05:55.602Z,2.00
2018-03-21T14:08:24.818Z,1.80
2018-03-21T14:10:54.086Z,1.83
2018-03-21T14:13:23.353Z,1.70
2018-03-21T14:15:52.608Z,1.73
2018-03-21T14:18:21.857Z,1.80
2018-03-21T14:20:51.094Z,1.60
2018-03-21T14:23:20.437Z,1.50
2018-03-21T14:25:53.976Z,1.97
2018-03-21T14:28:23.976Z,1.83
2018-03-21T14:30:53.987Z,2.27
2018-03-21T14:33:24.085Z,1.90
2018-03-21T14:35:53.268Z,2.07
2018-03-21T14:38:22.560Z,1.90
2018-03-21T14:40:52.639Z,2.37
2018-03-21T14:43:21.938Z,1.87
2018-03-21T14:45:51.230Z,2.20
2018-03-21T14:48:21.391Z,2.20
2018-03-21T14:50:50.671Z,2.40
2018-03-21T14:53:19.967Z,4.03
2018-03-21T14:55:49.947Z,2.73
2018-03-21T14:58:19.182Z,2.20
2018-03-21T15:00:49.202Z,2.27
2018-03-21T15:03:18.489Z,2.40
2018-03-21T15:05:47.797Z,2.10
2018-03-21T15:08:17.023Z,2.33
2018-03-21T15:10:46.266Z,2.00
2018-03-21T15:13:15.520Z,2.27
2018-03-21T15:15:44.788Z,2.20
2018-03-21T15:18:14.028Z,2.20
2018-03-21T15:20:43.242Z,2.20
2018-03-21T15:23:12.473Z,2.30
2018-03-21T15:25:42.462Z,2.23
2018-03-21T15:28:11.681Z,2.07
2018-03-21T15:30:41.682Z,2.10
2018-03-21T15:33:10.908Z,1.83
2018-03-21T15:35:40.102Z,2.10
2018-03-21T15:38:09.351Z,2.10
2018-03-21T15:40:39.358Z,2.43
2018-03-21T15:43:08.590Z,2.70
2018-03-21T15:45:37.813Z,2.33
2018-03-21T15:48:07.794Z,2.60
2018-03-21T15:50:37.032Z,2.67
2018-03-21T15:53:06.243Z,2.70
2018-03-21T15:55:35.490Z,2.57
2018-03-21T15:58:05.508Z,2.57
2018-03-21T16:00:35.556Z,2.57
2018-03-21T16:03:04.842Z,2.27
2018-03-21T16:05:34.154Z,3.00
2018-03-21T16:08:03.372Z,2.60
2018-03-21T16:10:33.618Z,3.20
2018-03-21T16:13:03.655Z,3.67
2018-03-21T16:15:32.924Z,2.77
2018-03-21T16:18:02.172Z,2.80
2018-03-21T16:20:31.351Z,2.77
2018-03-21T16:23:00.546Z,2.33
2018-03-21T16:25:29.813Z,2.40
2018-03-21T16:27:59.805Z,2.30
2018-03-21T16:30:29.073Z,2.50
2018-03-21T16:32:58.381Z,2.63
2018-03-21T16:35:27.682Z,2.53
2018-03-21T16:37:56.887Z,2.30
2018-03-21T16:40:26.114Z,2.73
2018-03-21T16:42:57.303Z,2.33
2018-03-21T16:45:33.404Z,2.30
2018-03-21T16:48:04.414Z,2.37
2018-03-21T16:50:42.098Z,2.33
2018-03-21T16:53:11.366Z,2.20
2018-03-21T16:55:40.588Z,2.17
2018-03-21T16:58:09.882Z,2.23
2018-03-21T17:00:45.085Z,1.97
2018-03-21T17:03:14.364Z,2.10
2018-03-21T17:05:43.553Z,1.97
2018-03-21T17:08:12.802Z,1.97
2018-03-21T17:10:42.739Z,1.87
2018-03-21T17:13:12.004Z,2.00
2018-03-21T17:15:41.211Z,1.90
2018-03-21T17:18:10.441Z,1.87
2018-03-21T17:20:39.661Z,1.80
2018-03-21T17:23:09.662Z,2.30
2018-03-21T17:25:40.781Z,2.30
2018-03-21T17:28:13.335Z,2.33
2018-03-21T17:30:42.583Z,2.50
2018-03-21T17:33:11.852Z,2.37
2018-03-21T17:35:41.024Z,2.27
2018-03-21T17:38:10.239Z,2.70
2018-03-21T17:40:39.405Z,2.33
2018-03-21T17:43:08.632Z,2.93
2018-03-21T17:45:38.677Z,2.70
2018-03-21T17:48:07.976Z,2.77
2018-03-21T17:50:38.235Z,3.20
2018-03-21T17:53:07.435Z,3.30
2018-03-21T17:55:44.977Z,3.50
2018-03-21T17:58:14.243Z,3.17
2018-03-21T18:00:43.419Z,3.17
2018-03-21T18:03:12.648Z,3.30
2018-03-21T18:05:42.734Z,3.03
2018-03-21T18:08:12.041Z,3.03
2018-03-21T18:10:41.261Z,3.57
2018-03-21T18:13:11.578Z,3.50
2018-03-21T18:15:40.849Z,3.53
2018-03-21T18:18:14.058Z,3.17
2018-03-21T18:20:43.421Z,3.30
2018-03-21T18:23:12.629Z,4.37
2018-03-21T18:25:41.856Z,3.10
2018-03-21T18:28:11.126Z,3.10
2018-03-21T18:30:59.879Z,3.10
2018-03-21T18:33:29.881Z,3.10
2018-03-21T18:35:59.119Z,3.57
2018-03-21T18:38:28.369Z,3.00
2018-03-21T18:40:57.566Z,3.47
2018-03-21T18:43:26.818Z,3.63
2018-03-21T18:45:56.122Z,3.70
2018-03-21T18:48:25.314Z,3.60
2018-03-21T18:50:56.584Z,3.40
2018-03-21T18:53:30.267Z,3.07
2018-03-21T18:56:02.949Z,3.80
2018-03-21T18:58:32.209Z,3.70
2018-03-21T19:01:01.407Z,3.60
2018-03-21T19:03:36.957Z,3.60
2018-03-21T19:06:06.398Z,3.90
2018-03-21T19:08:35.822Z,3.90
2018-03-21T19:11:05.480Z,4.67
2018-03-21T19:13:34.837Z,3.90
2018-03-21T19:16:04.156Z,4.80
2018-03-21T19:18:33.470Z,4.43
2018-03-21T19:21:03.049Z,4.40
2018-03-21T19:23:32.570Z,4.03
2018-03-21T19:26:01.932Z,4.60
2018-03-21T19:28:31.153Z,6.40
2018-03-21T19:31:00.365Z,4.77
2018-03-21T19:33:29.897Z,4.10
2018-03-21T19:36:06.437Z,3.87
2018-03-21T19:38:35.754Z,4.00
2018-03-21T19:41:05.167Z,4.43
2018-03-21T19:43:48.079Z,4.43
2018-03-21T19:46:17.325Z,4.87
2018-03-21T19:48:46.867Z,4.70
2018-03-21T19:51:16.902Z,4.63
2018-03-21T19:53:46.379Z,4.43
2018-03-21T19:56:15.825Z,6.13
2018-03-21T19:58:45.157Z,5.83
2018-03-21T20:01:14.663Z,5.87
2018-03-21T20:03:43.873Z,4.80
2018-03-21T20:06:13.889Z,4.67
2018-03-21T20:08:43.118Z,4.70
2018-03-21T20:11:12.393Z,4.60
2018-03-21T20:13:41.808Z,4.90
2018-03-21T20:16:11.046Z,5.17
2018-03-21T20:18:40.332Z,5.00
2018-03-21T20:21:09.593Z,5.07
2018-03-21T20:23:38.862Z,4.53
2018-03-21T20:26:08.099Z,4.60
2018-03-21T20:28:38.137Z,4.60
2018-03-21T20:31:08.209Z,4.63
2018-03-21T20:33:37.549Z,5.00
2018-03-21T20:36:06.800Z,4.20
2018-03-21T20:38:43.439Z,3.93
2018-03-21T20:41:12.748Z,4.03
2018-03-21T20:43:41.996Z,5.20
2018-03-21T20:46:11.170Z,4.70
2018-03-21T20:48:40.423Z,5.67
2018-03-21T20:51:09.694Z,5.47
2018-03-21T20:53:39.112Z,5.23
2018-03-21T20:56:08.422Z,4.93
2018-03-21T20:58:37.696Z,5.50
2018-03-21T21:01:06.940Z,5.43
2018-03-21T21:03:36.151Z,5.50
2018-03-21T21:06:05.389Z,6.07
2018-03-21T21:08:34.607Z,6.53
2018-03-21T21:11:04.665Z,6.60
2018-03-21T21:13:33.877Z,7.70
2018-03-21T21:16:03.035Z,8.03
2018-03-21T21:18:47.556Z,7.93
2018-03-21T21:21:16.750Z,8.17
2018-03-21T21:23:46.737Z,8.03
2018-03-21T21:26:16.062Z,7.00
2018-03-21T21:28:45.362Z,6.70
2018-03-21T21:31:14.603Z,5.77
2018-03-21T21:33:43.817Z,7.20
2018-03-21T21:36:13.841Z,6.00
2018-03-21T21:38:43.107Z,6.00
2018-03-21T21:41:12.363Z,7.27
2018-03-21T21:43:41.674Z,8.00
2018-03-21T21:46:10.952Z,7.47
2018-03-21T21:48:40.968Z,7.27
2018-03-21T21:51:10.241Z,6.97
2018-03-21T21:53:40.276Z,6.67
2018-03-21T21:56:10.295Z,7.23
2018-03-21T21:58:39.574Z,7.50
2018-03-21T22:01:08.847Z,6.50
2018-03-21T22:03:38.127Z,6.63
2018-03-21T22:06:07.376Z,6.77
2018-03-21T22:08:36.670Z,6.33
2018-03-21T22:11:10.666Z,5.80
2018-03-21T22:13:39.888Z,6.67
2018-03-21T22:16:09.893Z,6.40
2018-03-21T22:18:39.207Z,6.93
2018-03-21T22:21:08.457Z,6.17
2018-03-21T22:23:37.649Z,6.47
2018-03-21T22:26:06.921Z,6.30
2018-03-21T22:28:36.200Z,7.23
2018-03-21T22:31:05.393Z,7.03
2018-03-21T22:33:35.422Z,6.93
2018-03-21T22:36:05.426Z,7.13
2018-03-21T22:38:34.667Z,6.47
2018-03-21T22:41:03.912Z,6.93
2018-03-21T22:43:33.217Z,6.97
2018-03-21T22:46:02.426Z,6.30
2018-03-21T22:48:31.613Z,6.83
2018-03-21T22:54:06.768Z,6.87
2018-03-21T22:56:38.024Z,6.43
2018-03-21T22:59:07.255Z,7.10
2018-03-21T23:01:37.267Z,5.90
2018-03-21T23:04:06.511Z,6.27
2018-03-21T23:06:35.780Z,6.60
2018-03-21T23:09:05.011Z,6.87
2018-03-21T23:11:34.258Z,6.33
2018-03-21T23:14:03.508Z,6.73
2018-03-21T23:16:32.747Z,7.60
2018-03-21T23:19:02.764Z,7.80
2018-03-21T23:21:32.074Z,7.37
2018-03-21T23:24:01.358Z,7.43
2018-03-21T23:26:30.622Z,7.17
2018-03-21T23:29:21.319Z,7.83
2018-03-21T23:31:50.521Z,6.97
2018-03-21T23:34:19.746Z,7.43
2018-03-21T23:36:49.054Z,7.63
2018-03-21T23:39:18.308Z,7.00
2018-03-21T23:41:47.543Z,7.70
2018-03-21T23:44:16.891Z,5.90
2018-03-21T23:46:46.146Z,6.37
2018-03-21T23:49:15.511Z,7.03
2018-03-21T23:51:44.772Z,6.43
2018-03-21T23:54:13.969Z,7.30
2018-03-21T23:56:43.950Z,6.20
2018-03-21T23:59:13.193Z,6.50
